Barto, PA (19504)

2:14 PM EDT on July 04, 2015 (GMT -0400)
Rural Barto | | Change Station
CLOSE
Current Station
Personal Weather Station
Location: Barto, PA
Elevation: 452 ft
Nearby Weather Stations

Elev 452 ft 40.39 °N, 75.59 °W | Updated 15 minutes ago

Overcast
Overcast
68.9 °F
Feels Like 68.9 °F
N
4.0
Wind Variable Wind from ENE
Gusts 7.0 mph

Today
High -- | Low -- °F
--% Chance of Precip.
Yesterday
High -- | Low -- °F
Precip. -- in
5:37 AM 8:35 PM
Waning Gibbous, 91% visible
Pressure 29.96 in
Visibility 10.0 miles
Clouds Mostly Cloudy 8500 ft
Overcast 10000 ft
Dew Point 63 °F
Humidity 81%
Rainfall 0.07 in
Snow Depth Not available.
UV 3 out of 12
Pollen .50 out of 12
Air Quality Not available.
Flu Activity Not available.
METAR KPTW 041754Z AUTO 07006KT 10SM BKN085 OVC100 21/17 A2997 RMK AO2 RAE1659 SLP145 P0000 60006 T02060172 10206 20189 51002

More Conditions Fewer Conditions

Pressure 29.96 in
Visibility 10.0 miles
Clouds Mostly Cloudy 8500 ft
Overcast 10000 ft
Dew Point 63 °F
Humidity 81%
Rainfall 0.07 in
Snow Depth Not available.
UV 3 out of 12
Pollen .50 out of 12
Air Quality Not available.
Flu Activity Not available.
METAR KPTW 041754Z AUTO 07006KT 10SM BKN085 OVC100 21/17 A2997 RMK AO2 RAE1659 SLP145 P0000 60006 T02060172 10206 20189 51002

More Conditions Fewer Conditions

Nowcast | as of 2:05 PM EDT on July 4, 2015

Conditions will continue to dry out between 2 and 4 PM this afternoon across eastern Pennsylvania and the Eastern Shore of Maryland as the bulk of the rain shifts east of the area. You still may encounter a brief shower or sprinkle, especially toward Philadelphia but most locations will remain dry and cloudy during the mid afternoon. Temperatures will slowly warm into the upper 60s and lower 70s.

×

10-Day Weather Forecast

×

Almanac

Astronomy

Jul. 04, 2015 Rise Set
Actual Time
Civil Twilight
Nautical Twilight
Astronomical Twilight
Moon
Length of Visible Light
Length of Day
Tomorrow will be .
, % of the Moon is Illuminated

Today's Extremes

State Highs State Lows

Community

WunderPhotos

Upload Photos

1,835,030 photos uploaded!

WunderBlogs® & News

Nearby

Air Quality

  Air Quality AQ Index Pollutant
Not available.

Snow Depth

Station Depth Elevation

Earthquake Activity

City Distance Mag. Time & Date
Minimum magnitude displayed is 2.5.

Coastal Water Temperatures

Place Temperature

Stations

Nearby Weather Stations

Station Location Temp. Windchill Dew Point Humidity Wind Precip. Elev Updated Type